Data for 12/26/2014

Time Sea-Level Adjusted Pressure Absolute Pressure Temperature Relative Humidity Dew Point   
(mb) (inHg) (mb) (inHg) (C) (F) (%) (C) (F)
00:05 1016 30 845 24.95 -9.3 15.2 87 -11.1 12
00:10 1016 30 845 24.95 -9.5 15 87 -11.2 11.9
00:15 1016 30 845 24.95 -9.6 14.7 87 -11.3 11.6
00:20 1016 30 845 24.95 -9.7 14.5 87 -11.4 11.5
00:25 1016 30 845 24.95 -9.8 14.4 87 -11.6 11.2
00:30 1016 30 845 24.95 -9.9 14.2 87 -11.6 11.2
00:35 1016 30 845 24.95 -10 13.9 87 -11.8 10.7
00:40 1016 30 845 24.95 -10.1 13.9 87 -11.8 10.7
00:45 1016 30 845 24.95 -9.9 14.1 87 -11.7 10.9
00:50 1016 30 845 24.95 -9.7 14.6 86 -11.6 11.1
00:55 1016 30 845 24.95 -9.6 14.6 85 -11.7 11
01:00 1016 30 845 24.95 -9.8 14.4 85 -11.8 10.7
01:05 1016 30 845 24.95 -9.9 14.2 85 -12 10.4
01:10 1016 30 845 24.95 -10.1 13.7 85 -12.2 10
01:15 1016 30 845 24.95 -10.3 13.5 85 -12.3 9.9
01:20 1016 30 845 24.95 -10.2 13.7 86 -12.2 10.1
01:25 1016 30 845 24.95 -10.3 13.5 86 -12.2 10.1
01:30 1016 30 845 24.95 -10.2 13.6 85 -12.3 9.9
01:35 1016 30 845 24.95 -10.3 13.5 86 -12.3 9.9
01:40 1016 30 845 24.95 -10.2 13.6 85 -12.3 9.8
01:45 1016 30 845 24.95 -10.2 13.6 85 -12.3 9.9
01:50 1016 30 845 24.95 -10.2 13.6 85 -12.3 9.8
01:55 1016 30 845 24.95 -10.3 13.5 85 -12.4 9.7
02:00 1016 30 845 24.95 -10.3 13.5 84 -12.4 9.6
02:05 1016 30 845 24.95 -10.4 13.3 84 -12.6 9.3
02:10 1016 30 845 24.95 -10.3 13.4 83 -12.7 9.1
02:15 1016 30 845 24.95 -10.5 13.2 83 -12.8 8.9
02:20 1016 30 845 24.95 -10.6 12.9 83 -13 8.6
02:25 1016 30 845 24.95 -10.6 12.9 82 -13.1 8.4
02:30 1016 30 845 24.95 -10.5 13 83 -12.9 8.8
02:35 1016 30 845 24.95 -10.4 13.3 81 -13 8.7
02:40 1016 30 845 24.95 -10.6 12.9 82 -13.1 8.3
02:45 1016 30 845 24.95 -10.7 12.7 82 -13.2 8.2
02:50 1016 30 845 24.95 -10.8 12.6 83 -13.1 8.4
02:55 1016 30 845 24.95 -10.6 13 82 -13.1 8.4
03:00 1016 30 845 24.95 -10.5 13.1 82 -12.9 8.7
03:05 1016 30 845 24.95 -10.4 13.2 82 -13 8.6
03:10 1016 30 845 24.95 -10.5 13.2 82 -13 8.6
03:15 1016 30 845 24.95 -10.4 13.2 82 -12.9 8.8
03:20 1016 30 845 24.95 -10.3 13.6 81 -12.9 8.8
03:25 1016 30 846 24.98 -10.1 13.8 81 -12.8 9
03:30 1016 30 846 24.98 -10 13.9 81 -12.8 9
03:35 1016 30 846 24.98 -9.9 14.1 80 -12.7 9.2
03:40 1016 30 846 24.98 -9.9 14.2 80 -12.6 9.3
03:45 1016 30 846 24.98 -9.8 14.3 80 -12.6 9.4
03:50 1016 30 846 24.98 -9.8 14.4 80 -12.6 9.4
03:55 1016 30 846 24.98 -9.8 14.3 80 -12.7 9.1
04:00 1016 30 846 24.98 -10 14.1 81 -12.6 9.3
04:05 1016 30 846 24.98 -10 14.1 81 -12.6 9.4
04:10 1016 30 846 24.98 -9.8 14.3 81 -12.5 9.5
04:15 1016 30 846 24.98 -9.7 14.5 79 -12.8 9
04:20 1017 30.03 846 24.98 -9.6 14.7 79 -12.7 9.1
04:25 1017 30.03 846 24.98 -9.5 14.9 78 -12.6 9.3
04:30 1017 30.03 846 24.98 -9.4 15 78 -12.6 9.3
04:35 1017 30.03 846 24.98 -9.4 15.1 78 -12.6 9.3
04:40 1017 30.03 846 24.98 -9.3 15.2 78 -12.5 9.4
04:45 1017 30.03 846 24.98 -9.2 15.5 77 -12.5 9.6
04:50 1017 30.03 846 24.98 -9.1 15.7 77 -12.4 9.6
04:55 1017 30.03 846 24.98 -9 15.8 77 -12.3 9.8
05:00 1017 30.03 846 24.98 -9 15.8 77 -12.3 9.9
05:05 1017 30.03 846 24.98 -9.1 15.6 79 -12.1 10.3
05:10 1017 30.03 846 24.98 -9.3 15.2 80 -12.2 10.1
05:15 1017 30.03 846 24.98 -9.4 15.1 81 -12.2 10.1
05:20 1017 30.03 846 24.98 -9.5 14.9 82 -12 10.4
05:25 1017 30.03 846 24.98 -9.7 14.5 81 -12.4 9.7
05:30 1017 30.03 846 24.98 -9.8 14.3 81 -12.5 9.6
05:35 1017 30.03 846 24.98 -9.8 14.3 81 -12.4 9.6
05:40 1017 30.03 846 24.98 -9.8 14.4 82 -12.4 9.7
05:45 1017 30.03 846 24.98 -9.7 14.5 82 -12.3 9.9
05:50 1017 30.03 846 24.98 -9.7 14.5 82 -12.2 10
05:55 1017 30.03 846 24.98 -9.7 14.6 82 -12.2 10
06:00 1016 30 846 24.98 -9.6 14.7 81 -12.2 10
06:05 1016 30 846 24.98 -9.5 14.9 81 -12.1 10.1
06:10 1016 30 846 24.98 -9.4 15.1 81 -12 10.3
06:15 1016 30 846 24.98 -9.3 15.3 80 -12.1 10.3
06:20 1016 30 846 24.98 -9.1 15.6 80 -12 10.4
06:25 1016 30 846 24.98 -9.1 15.5 81 -11.9 10.6
06:30 1017 30.03 846 24.98 -9.5 14.8 81 -12.3 9.9
06:35 1017 30.03 846 24.98 -9.6 14.7 81 -12.3 9.9
06:40 1017 30.03 846 24.98 -9.6 14.7 81 -12.3 9.9
06:45 1017 30.03 846 24.98 -9.6 14.8 81 -12.2 10
06:50 1017 30.03 846 24.98 -9.4 15.1 81 -12.1 10.2
06:55 1017 30.03 846 24.98 -9.3 15.3 80 -12 10.3
07:00 1017 30.03 846 24.98 -9.1 15.7 80 -11.9 10.5
07:05 1017 30.03 846 24.98 -9 15.8 80 -11.9 10.7
07:10 1017 30.03 846 24.98 -9 15.9 80 -11.8 10.7
07:15 1017 30.03 846 24.98 -8.9 16 81 -11.6 11.1
07:20 1017 30.03 846 24.98 -8.8 16.1 80 -11.7 10.9
07:25 1017 30.03 846 24.98 -9 15.8 80 -11.8 10.7
07:30 1017 30.03 846 24.98 -9.2 15.5 80 -11.9 10.5
07:35 1017 30.03 846 24.98 -9.2 15.4 81 -11.9 10.6
07:40 1017 30.03 846 24.98 -9.3 15.3 82 -11.9 10.7
07:45 1017 30.03 846 24.98 -9.2 15.4 82 -11.8 10.8
07:50 1017 30.03 846 24.98 -9.1 15.7 81 -11.7 10.9
07:55 1017 30.03 846 24.98 -8.9 15.9 81 -11.6 11.1
08:00 1017 30.03 846 24.98 -8.8 16.2 81 -11.6 11.2
08:05 1017 30.03 846 24.98 -8.7 16.4 80 -11.5 11.3
08:10 1017 30.03 846 24.98 -8.6 16.5 80 -11.4 11.4
08:15 1017 30.03 846 24.98 -8.6 16.6 80 -11.4 11.5
08:20 1017 30.03 846 24.98 -8.5 16.8 80 -11.3 11.7
08:25 1017 30.03 846 24.98 -8.6 16.5 81 -11.3 11.6
08:30 1017 30.03 846 24.98 -8.7 16.3 80 -11.5 11.3
08:35 1017 30.03 846 24.98 -8.7 16.3 81 -11.5 11.4
08:40 1017 30.03 847 25.01 -8.8 16.3 81 -11.4 11.4
08:45 1017 30.03 847 25.01 -8.6 16.5 81 -11.3 11.6
08:50 1017 30.03 847 25.01 -8.6 16.6 81 -11.3 11.7
08:55 1017 30.03 847 25.01 -8.4 16.8 81 -11.2 11.9
09:00 1017 30.03 847 25.01 -8.4 16.9 81 -11.2 11.9
09:05 1017 30.03 847 25.01 -8.3 17 81 -11.1 12.1
09:10 1017 30.03 847 25.01 -8.3 17.1 81 -11 12.3
09:15 1017 30.03 847 25.01 -8.3 17 81 -11.1 12
09:20 1017 30.03 847 25.01 -8.2 17.3 80 -11 12.1
09:25 1017 30.03 847 25.01 -8.2 17.3 81 -10.9 12.4
09:30 1018 30.06 847 25.01 -8.1 17.3 81 -10.9 12.4
09:35 1018 30.06 847 25.01 -8 17.6 79 -11 12.2
09:40 1018 30.06 847 25.01 -7.8 17.9 79 -10.9 12.3
09:45 1018 30.06 847 25.01 -7.7 18.1 79 -10.8 12.6
09:50 1018 30.06 847 25.01 -7.7 18.2 79 -10.8 12.6
09:55 1018 30.06 847 25.01 -7.6 18.3 79 -10.7 12.7
10:00 1018 30.06 847 25.01 -7.6 18.3 79 -10.7 12.8
10:05 1018 30.06 847 25.01 -7.6 18.4 79 -10.6 12.8
10:10 1018 30.06 847 25.01 -7.5 18.6 79 -10.5 13.1
10:15 1018 30.06 847 25.01 -7.4 18.7 80 -10.3 13.5
10:20 1018 30.06 847 25.01 -7.3 18.8 80 -10.2 13.6
10:25 1018 30.06 847 25.01 -7.2 19 81 -10 14
10:30 1018 30.06 847 25.01 -7.2 19.1 82 -9.8 14.4
10:35 1018 30.06 847 25.01 -7 19.4 82 -9.7 14.6
10:40 1018 30.06 847 25.01 -7 19.4 82 -9.7 14.6
10:45 1018 30.06 847 25.01 -6.9 19.6 82 -9.5 14.9
10:50 1018 30.06 847 25.01 -6.8 19.7 82 -9.4 15.1
10:55 1018 30.06 847 25.01 -6.9 19.6 83 -9.2 15.4
11:00 1018 30.06 847 25.01 -6.9 19.6 84 -9.2 15.4
11:05 1018 30.06 847 25.01 -7 19.5 84 -9.3 15.3
11:10 1018 30.06 848 25.04 -6.7 20 83 -9.2 15.5
11:15 1018 30.06 848 25.04 -6.5 20.2 82 -9.2 15.5
11:20 1018 30.06 848 25.04 -6.5 20.3 80 -9.4 15.1
11:25 1018 30.06 848 25.04 -6.3 20.7 77 -9.6 14.7
11:30 1019 30.09 848 25.04 -6.1 21 78 -9.3 15.2
11:35 1019 30.09 848 25.04 -6 21.2 78 -9.2 15.4
11:40 1019 30.09 848 25.04 -5.9 21.4 78 -9.1 15.7
11:45 1019 30.09 848 25.04 -5.6 21.9 76 -9.2 15.4
11:50 1019 30.09 848 25.04 -5.6 22 76 -9.1 15.6
11:55 1019 30.09 848 25.04 -5.6 22 77 -9 15.8
12:00 1019 30.09 848 25.04 -5.4 22.3 77 -8.7 16.3
12:05 1019 30.09 848 25.04 -5.2 22.6 77 -8.6 16.6
12:10 1019 30.09 848 25.04 -5.1 22.8 76 -8.7 16.4
12:15 1019 30.09 848 25.04 -5.1 22.8 75 -8.9 16
12:20 1019 30.09 848 25.04 -5.4 22.3 77 -8.8 16.1
12:25 1019 30.09 848 25.04 -5.7 21.7 77 -9.1 15.6
12:30 1019 30.09 848 25.04 -5.7 21.7 74 -9.6 14.8
12:35 1019 30.09 848 25.04 -5.9 21.5 75 -9.5 14.8
12:40 1019 30.09 848 25.04 -5.8 21.5 76 -9.4 15
12:45 1019 30.09 848 25.04 -5.5 22.1 74 -9.4 15.1
12:50 1019 30.09 848 25.04 -5.3 22.5 73 -9.3 15.2
12:55 1019 30.09 848 25.04 -5.1 22.8 71 -9.6 14.8
13:00 1019 30.09 848 25.04 -4.9 23.1 71 -9.5 14.9
13:05 1019 30.09 848 25.04 -5.2 22.6 73 -9.3 15.2
13:10 1019 30.09 848 25.04 -5.6 22 75 -9.4 15.1
13:15 1019 30.09 848 25.04 -5.3 22.5 73 -9.4 15.1
13:20 1019 30.09 848 25.04 -5.3 22.4 74 -9.2 15.4
13:25 1019 30.09 848 25.04 -5.3 22.5 73 -9.3 15.2
13:30 1019 30.09 848 25.04 -5.3 22.4 75 -9.2 15.5
13:35 1019 30.09 848 25.04 -5.4 22.3 74 -9.2 15.4
13:40 1019 30.09 848 25.04 -5.2 22.6 74 -9.2 15.5
13:45 1019 30.09 848 25.04 -5 22.9 74 -9.1 15.7
13:50 1019 30.09 848 25.04 -4.7 23.6 72 -8.9 15.9
13:55 1019 30.09 848 25.04 -4.3 24.2 70 -8.9 15.9
14:00 1019 30.09 848 25.04 -4.5 23.9 71 -9 15.8
14:05 1019 30.09 848 25.04 -4.6 23.8 72 -8.9 16
14:10 1019 30.09 848 25.04 -4.5 24 71 -8.9 16
14:15 1019 30.09 848 25.04 -4.6 23.8 72 -8.8 16.2
14:20 1019 30.09 848 25.04 -4.9 23.2 74 -8.8 16.2
14:25 1019 30.09 848 25.04 -5 23 76 -8.7 16.4
14:30 1019 30.09 848 25.04 -5.2 22.7 76 -8.8 16.1
14:35 1019 30.09 848 25.04 -5.4 22.2 77 -8.9 16
14:40 1019 30.09 848 25.04 -5.6 21.9 78 -8.9 16
14:45 1019 30.09 848 25.04 -5.6 21.9 77 -9 15.9
14:50 1019 30.09 848 25.04 -5.4 22.2 77 -8.8 16.1
14:55 1019 30.09 848 25.04 -5.4 22.4 77 -8.7 16.3
15:00 1019 30.09 848 25.04 -5.8 21.6 79 -8.8 16.1
15:05 1019 30.09 848 25.04 -6.3 20.6 82 -9 15.9
15:10 1019 30.09 848 25.04 -6 21.1 80 -8.9 15.9
15:15 1019 30.09 848 25.04 -5.8 21.5 79 -8.9 16
15:20 1019 30.09 848 25.04 -5.8 21.5 79 -8.9 15.9
15:25 1019 30.09 848 25.04 -5.8 21.6 78 -9 15.9
15:30 1019 30.09 848 25.04 -5.7 21.7 77 -9.1 15.6
15:35 1019 30.09 848 25.04 -5.8 21.6 77 -9.1 15.6
15:40 1019 30.09 848 25.04 -6.1 21 78 -9.3 15.2
15:45 1019 30.09 848 25.04 -6.2 20.8 80 -9.2 15.5
15:50 1019 30.09 848 25.04 -6.4 20.5 80 -9.2 15.4
15:55 1019 30.09 848 25.04 -6.3 20.7 80 -9.2 15.4
16:00 1019 30.09 848 25.04 -6.2 20.9 78 -9.3 15.2
16:05 1019 30.09 848 25.04 -6.2 20.8 79 -9.3 15.3
16:10 1019 30.09 848 25.04 -6.3 20.6 79 -9.3 15.2
16:15 1019 30.09 848 25.04 -6.3 20.6 80 -9.3 15.3
16:20 1019 30.09 848 25.04 -6.3 20.6 80 -9.2 15.4
16:25 1019 30.09 849 25.07 -6.5 20.2 81 -9.3 15.3
16:30 1019 30.09 849 25.07 -6.7 19.9 82 -9.3 15.3
16:35 1019 30.09 849 25.07 -7.2 19 84 -9.4 15
16:40 1019 30.09 849 25.07 -7.6 18.3 86 -9.6 14.8
16:45 1019 30.09 849 25.07 -7.7 18.2 86 -9.6 14.7
16:50 1020 30.12 849 25.07 -7.7 18.2 86 -9.7 14.6
16:55 1020 30.12 849 25.07 -7.8 17.9 87 -9.7 14.6
17:00 1020 30.12 849 25.07 -8 17.6 87 -9.7 14.5
17:05 1020 30.12 849 25.07 -8.1 17.5 88 -9.8 14.4
17:10 1020 30.12 849 25.07 -8.1 17.4 88 -9.8 14.4
17:15 1020 30.12 849 25.07 -8.1 17.5 87 -9.8 14.3
17:20 1020 30.12 849 25.07 -8.1 17.5 87 -9.8 14.3
17:25 1020 30.12 849 25.07 -8.1 17.4 87 -9.9 14.2
17:30 1020 30.12 849 25.07 -8.2 17.3 88 -9.9 14.2
17:35 1020 30.12 849 25.07 -8.2 17.2 88 -9.9 14.2
17:40 1020 30.12 849 25.07 -8.4 16.9 88 -10 14
17:45 1020 30.12 849 25.07 -8.5 16.7 88 -10.1 13.7
17:50 1020 30.12 849 25.07 -8.7 16.3 89 -10.2 13.6
17:55 1020 30.12 849 25.07 -8.9 16 90 -10.3 13.5
18:00 1020 30.12 849 25.07 -8.9 16 89 -10.3 13.4
18:05 1020 30.12 849 25.07 -8.9 15.9 89 -10.4 13.3
18:10 1020 30.12 849 25.07 -9 15.8 90 -10.4 13.3
18:15 1020 30.12 849 25.07 -9.2 15.4 91 -10.4 13.2
18:20 1020 30.12 849 25.07 -9.2 15.5 91 -10.4 13.2
18:25 1020 30.12 849 25.07 -9.2 15.5 91 -10.4 13.2
18:30 1020 30.12 849 25.07 -9.4 15 91 -10.7 12.8
18:35 1020 30.12 849 25.07 -9.5 14.8 92 -10.6 12.9
18:40 1020 30.12 849 25.07 -9.5 14.9 92 -10.5 13.1
18:45 1020 30.12 849 25.07 -9.5 14.9 92 -10.5 13
18:50 1020 30.12 849 25.07 -9.5 14.8 93 -10.5 13.1
18:55 1020 30.12 849 25.07 -9.6 14.8 92 -10.7 12.8
19:00 1020 30.12 849 25.07 -10 13.9 93 -11 12.2
19:05 1020 30.12 849 25.07 -10 14.1 93 -11 12.3
19:10 1020 30.12 849 25.07 -10.2 13.6 93 -11.2 11.9
19:15 1020 30.12 849 25.07 -10.3 13.5 93 -11.3 11.7
19:20 1020 30.12 849 25.07 -10.2 13.6 93 -11.2 11.9
19:25 1020 30.12 849 25.07 -10.1 13.9 93 -11 12.2
19:30 1020 30.12 849 25.07 -9.8 14.3 93 -10.8 12.6
19:35 1020 30.12 849 25.07 -9.8 14.4 92 -10.8 12.5
19:40 1020 30.12 849 25.07 -9.9 14.2 92 -10.9 12.4
19:45 1020 30.12 849 25.07 -9.8 14.4 93 -10.8 12.6
19:50 1020 30.12 849 25.07 -9.7 14.5 92 -10.8 12.5
19:55 1020 30.12 849 25.07 -9.6 14.8 92 -10.6 12.9
20:00 1020 30.12 849 25.07 -9.4 15 92 -10.6 13
20:05 1020 30.12 850 25.1 -9.6 14.7 91 -10.8 12.5
20:10 1020 30.12 850 25.1 -9.9 14.1 91 -11.2 11.9
20:15 1020 30.12 850 25.1 -10.1 13.9 91 -11.2 11.8
20:20 1020 30.12 850 25.1 -10.4 13.4 91 -11.6 11.2
20:25 1020 30.12 850 25.1 -10.6 12.9 93 -11.6 11.2
20:30 1020 30.12 850 25.1 -10.3 13.4 93 -11.3 11.7
20:35 1020 30.12 850 25.1 -10.2 13.7 92 -11.2 11.8
20:40 1020 30.12 850 25.1 -10.2 13.7 92 -11.3 11.7
20:45 1020 30.12 850 25.1 -10.1 13.9 91 -11.3 11.7
20:50 1020 30.12 850 25.1 -10 13.9 91 -11.2 11.8
20:55 1020 30.12 850 25.1 -9.9 14.2 91 -11.1 12.1
21:00 1020 30.12 850 25.1 -9.9 14.2 88 -11.5 11.2
21:05 1020 30.12 850 25.1 -10.1 13.8 88 -11.7 10.9
21:10 1020 30.12 850 25.1 -10.2 13.7 88 -11.8 10.8
21:15 1020 30.12 850 25.1 -10.2 13.7 88 -11.8 10.8
21:20 1021 30.15 850 25.1 -10.3 13.6 88 -11.9 10.6
21:25 1021 30.15 850 25.1 -10.1 13.9 89 -11.5 11.2
21:30 1021 30.15 850 25.1 -10 13.9 87 -11.8 10.8
21:35 1021 30.15 850 25.1 -10.2 13.7 89 -11.6 11.1
21:40 1021 30.15 850 25.1 -9.8 14.4 88 -11.4 11.5
21:45 1021 30.15 850 25.1 -9.9 14.2 87 -11.8 10.8
21:50 1021 30.15 850 25.1 -10.4 13.3 87 -12.2 10.1
21:55 1021 30.15 850 25.1 -10.5 13 88 -12.2 10.1
22:00 1021 30.15 850 25.1 -10.3 13.4 88 -11.9 10.6
22:05 1021 30.15 850 25.1 -10.2 13.6 88 -11.8 10.7
22:10 1021 30.15 850 25.1 -10.2 13.6 88 -11.8 10.7
22:15 1021 30.15 850 25.1 -10.2 13.7 88 -11.8 10.8
22:20 1021 30.15 850 25.1 -10.1 13.8 87 -11.8 10.7
22:25 1021 30.15 850 25.1 -10.4 13.4 87 -12.1 10.3
22:30 1021 30.15 850 25.1 -10.5 13.2 88 -12.2 10.1
22:35 1021 30.15 850 25.1 -10.6 13 87 -12.4 9.7
22:40 1021 30.15 850 25.1 -10.7 12.7 89 -12.2 10.1
22:45 1021 30.15 850 25.1 -10.5 13.2 89 -11.9 10.5
22:50 1021 30.15 850 25.1 -10.5 13.1 89 -11.9 10.6
22:55 1021 30.15 850 25.1 -10.5 13.1 89 -12 10.4
23:00 1021 30.15 850 25.1 -10.3 13.5 92 -11.4 11.5
23:05 1021 30.15 850 25.1 -10 14.1 89 -11.5 11.3
23:10 1021 30.15 850 25.1 -10.2 13.6 89 -11.7 10.9
23:15 1021 30.15 850 25.1 -10.3 13.4 89 -11.8 10.7
23:20 1021 30.15 850 25.1 -10.4 13.3 89 -11.9 10.7
23:25 1021 30.15 850 25.1 -10.4 13.3 89 -11.9 10.5
23:30 1021 30.15 850 25.1 -10.4 13.3 90 -11.8 10.8
23:35 1021 30.15 850 25.1 -10.4 13.4 89 -11.8 10.7
23:40 1021 30.15 850 25.1 -10.4 13.3 89 -11.8 10.7
23:45 1021 30.15 850 25.1 -10.5 13.1 89 -11.9 10.5
23:50 1021 30.15 850 25.1 -10.7 12.8 89 -12.2 10.1
23:55 1021 30.15 850 25.1 -10.8 12.5 90 -12.2 10.1
24:00 1021 30.15 850 25.1 -10.8 12.6 90 -12.1 10.2